sensor_id;sensor_type;location;lat;lon;timestamp;temperature;humidity
76613;DHT22;65507;48.454;-2.058;2023-02-21T00:00:09;8.70;81.00
76613;DHT22;65507;48.454;-2.058;2023-02-21T00:02:53;8.70;80.90
76613;DHT22;65507;48.454;-2.058;2023-02-21T00:05:37;8.70;80.90
76613;DHT22;65507;48.454;-2.058;2023-02-21T00:08:22;8.70;80.80
76613;DHT22;65507;48.454;-2.058;2023-02-21T00:11:06;8.70;80.80
76613;DHT22;65507;48.454;-2.058;2023-02-21T00:13:50;8.60;80.80
76613;DHT22;65507;48.454;-2.058;2023-02-21T00:16:34;8.60;80.90
76613;DHT22;65507;48.454;-2.058;2023-02-21T00:19:19;8.50;81.00
76613;DHT22;65507;48.454;-2.058;2023-02-21T00:22:03;8.50;81.10
76613;DHT22;65507;48.454;-2.058;2023-02-21T00:24:47;8.50;81.10
76613;DHT22;65507;48.454;-2.058;2023-02-21T00:27:31;8.50;81.20
76613;DHT22;65507;48.454;-2.058;2023-02-21T00:30:15;8.50;81.10
76613;DHT22;65507;48.454;-2.058;2023-02-21T00:33:00;8.40;81.10
76613;DHT22;65507;48.454;-2.058;2023-02-21T00:35:44;8.40;81.20
76613;DHT22;65507;48.454;-2.058;2023-02-21T00:38:28;8.40;81.20
76613;DHT22;65507;48.454;-2.058;2023-02-21T00:41:12;8.30;81.20
76613;DHT22;65507;48.454;-2.058;2023-02-21T00:43:56;8.30;81.20
76613;DHT22;65507;48.454;-2.058;2023-02-21T00:46:41;8.30;81.30
76613;DHT22;65507;48.454;-2.058;2023-02-21T00:49:25;8.20;81.20
76613;DHT22;65507;48.454;-2.058;2023-02-21T00:52:09;8.20;81.30
76613;DHT22;65507;48.454;-2.058;2023-02-21T00:54:53;8.20;81.20
76613;DHT22;65507;48.454;-2.058;2023-02-21T00:57:37;8.20;81.20
76613;DHT22;65507;48.454;-2.058;2023-02-21T01:00:22;8.20;81.20
76613;DHT22;65507;48.454;-2.058;2023-02-21T01:03:07;8.20;81.20
76613;DHT22;65507;48.454;-2.058;2023-02-21T01:05:51;8.20;81.10
76613;DHT22;65507;48.454;-2.058;2023-02-21T01:08:39;8.30;81.10
76613;DHT22;65507;48.454;-2.058;2023-02-21T01:11:23;8.30;80.90
76613;DHT22;65507;48.454;-2.058;2023-02-21T01:14:07;8.30;80.90
76613;DHT22;65507;48.454;-2.058;2023-02-21T01:16:51;8.30;80.90
76613;DHT22;65507;48.454;-2.058;2023-02-21T01:19:35;8.20;81.00
76613;DHT22;65507;48.454;-2.058;2023-02-21T01:22:19;8.20;81.00
76613;DHT22;65507;48.454;-2.058;2023-02-21T01:25:04;8.20;81.00
76613;DHT22;65507;48.454;-2.058;2023-02-21T01:27:48;8.20;81.10
76613;DHT22;65507;48.454;-2.058;2023-02-21T01:30:33;8.20;81.00
76613;DHT22;65507;48.454;-2.058;2023-02-21T01:33:17;8.10;81.00
76613;DHT22;65507;48.454;-2.058;2023-02-21T01:36:03;8.10;81.10
76613;DHT22;65507;48.454;-2.058;2023-02-21T01:38:47;8.10;81.10
76613;DHT22;65507;48.454;-2.058;2023-02-21T01:41:31;8.00;81.10
76613;DHT22;65507;48.454;-2.058;2023-02-21T01:47:19;8.00;81.20
76613;DHT22;65507;48.454;-2.058;2023-02-21T01:50:06;8.00;81.20
76613;DHT22;65507;48.454;-2.058;2023-02-21T01:52:51;7.90;81.20
76613;DHT22;65507;48.454;-2.058;2023-02-21T01:55:35;7.90;81.30
76613;DHT22;65507;48.454;-2.058;2023-02-21T01:58:20;7.90;81.20
76613;DHT22;65507;48.454;-2.058;2023-02-21T02:01:07;7.90;81.20
76613;DHT22;65507;48.454;-2.058;2023-02-21T02:03:55;7.90;81.20
76613;DHT22;65507;48.454;-2.058;2023-02-21T02:06:40;7.90;81.10
76613;DHT22;65507;48.454;-2.058;2023-02-21T02:09:24;7.90;81.20
76613;DHT22;65507;48.454;-2.058;2023-02-21T02:12:23;7.70;81.30
76613;DHT22;65507;48.454;-2.058;2023-02-21T02:19:55;7.60;81.60
76613;DHT22;65507;48.454;-2.058;2023-02-21T02:22:47;7.40;81.70
76613;DHT22;65507;48.454;-2.058;2023-02-21T02:25:26;7.30;82.00
76613;DHT22;65507;48.454;-2.058;2023-02-21T02:28:11;7.20;82.30
76613;DHT22;65507;48.454;-2.058;2023-02-21T02:30:59;7.20;82.40
76613;DHT22;65507;48.454;-2.058;2023-02-21T02:33:37;7.10;82.30
76613;DHT22;65507;48.454;-2.058;2023-02-21T02:36:12;7.10;82.30
76613;DHT22;65507;48.454;-2.058;2023-02-21T02:39:22;7.10;82.20
76613;DHT22;65507;48.454;-2.058;2023-02-21T02:44:14;7.10;82.00
76613;DHT22;65507;48.454;-2.058;2023-02-21T02:46:43;7.20;81.90
76613;DHT22;65507;48.454;-2.058;2023-02-21T02:49:12;7.20;81.80
76613;DHT22;65507;48.454;-2.058;2023-02-21T02:51:38;7.20;81.70
76613;DHT22;65507;48.454;-2.058;2023-02-21T02:54:04;7.20;81.60
76613;DHT22;65507;48.454;-2.058;2023-02-21T02:56:30;7.30;81.50
76613;DHT22;65507;48.454;-2.058;2023-02-21T02:59:08;7.30;81.40
76613;DHT22;65507;48.454;-2.058;2023-02-21T03:06:53;7.30;81.10
76613;DHT22;65507;48.454;-2.058;2023-02-21T03:09:28;7.30;81.10
76613;DHT22;65507;48.454;-2.058;2023-02-21T03:12:04;7.30;81.20
76613;DHT22;65507;48.454;-2.058;2023-02-21T03:14:35;7.30;81.20
76613;DHT22;65507;48.454;-2.058;2023-02-21T03:17:03;7.30;81.10
76613;DHT22;65507;48.454;-2.058;2023-02-21T03:19:32;7.40;81.30
76613;DHT22;65507;48.454;-2.058;2023-02-21T03:22:09;7.40;81.10
76613;DHT22;65507;48.454;-2.058;2023-02-21T03:24:35;7.40;81.10
76613;DHT22;65507;48.454;-2.058;2023-02-21T03:27:03;7.40;81.10
76613;DHT22;65507;48.454;-2.058;2023-02-21T03:29:30;7.40;81.10
76613;DHT22;65507;48.454;-2.058;2023-02-21T03:32:00;7.40;81.10
76613;DHT22;65507;48.454;-2.058;2023-02-21T03:34:40;7.50;81.00
76613;DHT22;65507;48.454;-2.058;2023-02-21T03:37:06;7.50;80.90
76613;DHT22;65507;48.454;-2.058;2023-02-21T03:39:32;7.50;80.90
76613;DHT22;65507;48.454;-2.058;2023-02-21T03:41:57;7.60;80.90
76613;DHT22;65507;48.454;-2.058;2023-02-21T03:44:23;7.60;80.80
76613;DHT22;65507;48.454;-2.058;2023-02-21T03:46:48;7.70;80.80
76613;DHT22;65507;48.454;-2.058;2023-02-21T03:49:14;7.70;80.70
76613;DHT22;65507;48.454;-2.058;2023-02-21T03:51:39;7.70;80.70
76613;DHT22;65507;48.454;-2.058;2023-02-21T03:54:05;7.70;80.60
76613;DHT22;65507;48.454;-2.058;2023-02-21T03:56:30;7.70;80.60
76613;DHT22;65507;48.454;-2.058;2023-02-21T03:58:56;7.80;80.70
76613;DHT22;65507;48.454;-2.058;2023-02-21T04:01:21;7.80;80.60
76613;DHT22;65507;48.454;-2.058;2023-02-21T04:03:47;7.80;80.70
76613;DHT22;65507;48.454;-2.058;2023-02-21T04:06:12;7.80;80.70
76613;DHT22;65507;48.454;-2.058;2023-02-21T04:08:38;7.80;80.70
76613;DHT22;65507;48.454;-2.058;2023-02-21T04:11:04;7.80;80.70
76613;DHT22;65507;48.454;-2.058;2023-02-21T04:13:29;7.70;80.80
76613;DHT22;65507;48.454;-2.058;2023-02-21T04:15:55;7.70;80.90
76613;DHT22;65507;48.454;-2.058;2023-02-21T04:18:20;7.70;81.00
76613;DHT22;65507;48.454;-2.058;2023-02-21T04:20:46;7.70;80.90
76613;DHT22;65507;48.454;-2.058;2023-02-21T04:23:15;7.70;81.00
76613;DHT22;65507;48.454;-2.058;2023-02-21T04:25:41;7.70;81.00
76613;DHT22;65507;48.454;-2.058;2023-02-21T04:28:06;7.70;80.90
76613;DHT22;65507;48.454;-2.058;2023-02-21T04:30:32;7.70;80.90
76613;DHT22;65507;48.454;-2.058;2023-02-21T04:32:57;8.60;81.40
76613;DHT22;65507;48.454;-2.058;2023-02-21T04:35:23;7.70;81.00
76613;DHT22;65507;48.454;-2.058;2023-02-21T04:37:48;7.60;81.00
76613;DHT22;65507;48.454;-2.058;2023-02-21T04:40:14;7.60;81.00
76613;DHT22;65507;48.454;-2.058;2023-02-21T04:42:39;7.60;81.00
76613;DHT22;65507;48.454;-2.058;2023-02-21T04:45:05;7.60;81.00
76613;DHT22;65507;48.454;-2.058;2023-02-21T04:47:31;7.60;81.00
76613;DHT22;65507;48.454;-2.058;2023-02-21T04:49:56;7.60;81.00
76613;DHT22;65507;48.454;-2.058;2023-02-21T04:52:22;7.70;81.00
76613;DHT22;65507;48.454;-2.058;2023-02-21T04:54:48;7.70;81.00
76613;DHT22;65507;48.454;-2.058;2023-02-21T04:57:14;7.70;80.90
76613;DHT22;65507;48.454;-2.058;2023-02-21T04:59:40;7.70;80.90
76613;DHT22;65507;48.454;-2.058;2023-02-21T05:02:05;7.70;81.00
76613;DHT22;65507;48.454;-2.058;2023-02-21T05:04:33;7.60;81.00
76613;DHT22;65507;48.454;-2.058;2023-02-21T05:06:59;7.60;81.00
76613;DHT22;65507;48.454;-2.058;2023-02-21T05:09:24;7.70;81.10
76613;DHT22;65507;48.454;-2.058;2023-02-21T05:11:50;7.70;81.00
76613;DHT22;65507;48.454;-2.058;2023-02-21T05:14:15;7.70;81.00
76613;DHT22;65507;48.454;-2.058;2023-02-21T05:16:42;7.70;81.00
76613;DHT22;65507;48.454;-2.058;2023-02-21T05:19:08;7.70;80.90
76613;DHT22;65507;48.454;-2.058;2023-02-21T05:21:34;7.70;80.90
76613;DHT22;65507;48.454;-2.058;2023-02-21T05:24:00;7.70;80.90
76613;DHT22;65507;48.454;-2.058;2023-02-21T05:26:26;7.70;80.90
76613;DHT22;65507;48.454;-2.058;2023-02-21T05:28:55;7.70;80.80
76613;DHT22;65507;48.454;-2.058;2023-02-21T05:31:21;7.70;80.80
76613;DHT22;65507;48.454;-2.058;2023-02-21T05:33:46;7.70;80.80
76613;DHT22;65507;48.454;-2.058;2023-02-21T05:36:12;8.40;81.20
76613;DHT22;65507;48.454;-2.058;2023-02-21T05:38:45;7.70;80.90
76613;DHT22;65507;48.454;-2.058;2023-02-21T05:41:11;7.80;80.80
76613;DHT22;65507;48.454;-2.058;2023-02-21T05:43:36;7.70;80.80
76613;DHT22;65507;48.454;-2.058;2023-02-21T05:46:02;7.70;80.80
76613;DHT22;65507;48.454;-2.058;2023-02-21T05:48:27;7.80;80.80
76613;DHT22;65507;48.454;-2.058;2023-02-21T05:50:53;7.70;80.80
76613;DHT22;65507;48.454;-2.058;2023-02-21T05:53:18;7.70;80.80
76613;DHT22;65507;48.454;-2.058;2023-02-21T05:55:44;7.60;80.90
76613;DHT22;65507;48.454;-2.058;2023-02-21T05:58:09;7.60;81.10
76613;DHT22;65507;48.454;-2.058;2023-02-21T06:00:35;7.60;81.10
76613;DHT22;65507;48.454;-2.058;2023-02-21T06:03:00;7.60;81.10
76613;DHT22;65507;48.454;-2.058;2023-02-21T06:05:26;7.60;81.10
76613;DHT22;65507;48.454;-2.058;2023-02-21T06:07:52;7.60;81.10
76613;DHT22;65507;48.454;-2.058;2023-02-21T06:10:17;7.60;80.90
76613;DHT22;65507;48.454;-2.058;2023-02-21T06:12:43;7.70;80.90
76613;DHT22;65507;48.454;-2.058;2023-02-21T06:15:09;7.60;81.00
76613;DHT22;65507;48.454;-2.058;2023-02-21T06:17:35;7.50;81.10
76613;DHT22;65507;48.454;-2.058;2023-02-21T06:20:01;7.40;81.20
76613;DHT22;65507;48.454;-2.058;2023-02-21T06:22:27;7.40;81.40
76613;DHT22;65507;48.454;-2.058;2023-02-21T06:24:52;7.40;81.40
76613;DHT22;65507;48.454;-2.058;2023-02-21T06:27:18;7.40;81.50
76613;DHT22;65507;48.454;-2.058;2023-02-21T06:29:43;7.30;81.50
76613;DHT22;65507;48.454;-2.058;2023-02-21T06:32:09;7.30;81.60
76613;DHT22;65507;48.454;-2.058;2023-02-21T06:34:34;7.30;81.50
76613;DHT22;65507;48.454;-2.058;2023-02-21T06:37:00;7.20;81.70
76613;DHT22;65507;48.454;-2.058;2023-02-21T06:39:26;7.20;81.80
76613;DHT22;65507;48.454;-2.058;2023-02-21T06:41:51;7.20;81.80
76613;DHT22;65507;48.454;-2.058;2023-02-21T06:44:17;7.20;81.70
76613;DHT22;65507;48.454;-2.058;2023-02-21T06:46:43;7.20;81.70
76613;DHT22;65507;48.454;-2.058;2023-02-21T06:49:09;7.10;81.60
76613;DHT22;65507;48.454;-2.058;2023-02-21T06:51:35;7.00;81.80
76613;DHT22;65507;48.454;-2.058;2023-02-21T06:54:00;7.00;81.80
76613;DHT22;65507;48.454;-2.058;2023-02-21T06:56:26;7.10;81.90
76613;DHT22;65507;48.454;-2.058;2023-02-21T06:58:52;6.10;81.20
76613;DHT22;65507;48.454;-2.058;2023-02-21T07:01:17;7.20;81.70
76613;DHT22;65507;48.454;-2.058;2023-02-21T07:03:43;7.30;81.40
76613;DHT22;65507;48.454;-2.058;2023-02-21T07:06:09;7.30;81.20
76613;DHT22;65507;48.454;-2.058;2023-02-21T07:08:35;7.40;81.20
76613;DHT22;65507;48.454;-2.058;2023-02-21T07:11:00;7.50;81.00
76613;DHT22;65507;48.454;-2.058;2023-02-21T07:13:26;7.50;80.90
76613;DHT22;65507;48.454;-2.058;2023-02-21T07:15:51;7.50;80.90
76613;DHT22;65507;48.454;-2.058;2023-02-21T07:18:17;7.50;80.90
76613;DHT22;65507;48.454;-2.058;2023-02-21T07:20:42;7.50;80.90
76613;DHT22;65507;48.454;-2.058;2023-02-21T07:23:08;7.50;80.90
76613;DHT22;65507;48.454;-2.058;2023-02-21T07:25:34;7.50;81.00
76613;DHT22;65507;48.454;-2.058;2023-02-21T07:27:59;7.50;81.10
76613;DHT22;65507;48.454;-2.058;2023-02-21T07:30:26;7.50;81.30
76613;DHT22;65507;48.454;-2.058;2023-02-21T07:32:51;7.50;81.30
76613;DHT22;65507;48.454;-2.058;2023-02-21T07:35:17;7.40;81.20
76613;DHT22;65507;48.454;-2.058;2023-02-21T07:37:43;7.40;81.30
76613;DHT22;65507;48.454;-2.058;2023-02-21T07:40:08;7.30;81.40
76613;DHT22;65507;48.454;-2.058;2023-02-21T07:42:34;7.30;81.40
76613;DHT22;65507;48.454;-2.058;2023-02-21T07:44:59;7.30;81.50
76613;DHT22;65507;48.454;-2.058;2023-02-21T07:47:25;7.40;81.50
76613;DHT22;65507;48.454;-2.058;2023-02-21T07:49:51;7.40;81.50
76613;DHT22;65507;48.454;-2.058;2023-02-21T07:52:18;7.30;81.40
76613;DHT22;65507;48.454;-2.058;2023-02-21T07:54:44;7.40;81.40
76613;DHT22;65507;48.454;-2.058;2023-02-21T07:57:10;7.40;81.30
76613;DHT22;65507;48.454;-2.058;2023-02-21T07:59:36;7.40;81.30
76613;DHT22;65507;48.454;-2.058;2023-02-21T08:02:01;7.50;81.40
76613;DHT22;65507;48.454;-2.058;2023-02-21T08:04:27;7.40;81.30
76613;DHT22;65507;48.454;-2.058;2023-02-21T08:06:57;7.40;81.30
76613;DHT22;65507;48.454;-2.058;2023-02-21T08:09:22;7.50;81.30
76613;DHT22;65507;48.454;-2.058;2023-02-21T08:11:48;7.50;81.30
76613;DHT22;65507;48.454;-2.058;2023-02-21T08:14:13;7.50;81.20
76613;DHT22;65507;48.454;-2.058;2023-02-21T08:16:39;7.60;81.30
76613;DHT22;65507;48.454;-2.058;2023-02-21T08:19:05;7.60;81.10
76613;DHT22;65507;48.454;-2.058;2023-02-21T08:21:30;7.60;81.00
76613;DHT22;65507;48.454;-2.058;2023-02-21T08:23:56;7.70;81.10
76613;DHT22;65507;48.454;-2.058;2023-02-21T08:26:21;7.70;81.40
76613;DHT22;65507;48.454;-2.058;2023-02-21T08:28:47;7.80;81.50
76613;DHT22;65507;48.454;-2.058;2023-02-21T08:31:13;7.80;81.00
76613;DHT22;65507;48.454;-2.058;2023-02-21T08:33:38;7.80;80.90
76613;DHT22;65507;48.454;-2.058;2023-02-21T08:36:04;7.80;81.00
76613;DHT22;65507;48.454;-2.058;2023-02-21T08:38:29;7.80;81.00
76613;DHT22;65507;48.454;-2.058;2023-02-21T08:40:55;7.70;81.10
76613;DHT22;65507;48.454;-2.058;2023-02-21T08:43:22;7.70;81.20
76613;DHT22;65507;48.454;-2.058;2023-02-21T08:45:48;7.70;81.40
76613;DHT22;65507;48.454;-2.058;2023-02-21T08:48:13;7.70;81.60
76613;DHT22;65507;48.454;-2.058;2023-02-21T08:50:39;7.90;81.60
76613;DHT22;65507;48.454;-2.058;2023-02-21T08:53:05;7.70;81.60
76613;DHT22;65507;48.454;-2.058;2023-02-21T08:55:30;7.80;81.50
76613;DHT22;65507;48.454;-2.058;2023-02-21T08:57:56;7.90;81.50
76613;DHT22;65507;48.454;-2.058;2023-02-21T09:00:22;7.90;81.30
76613;DHT22;65507;48.454;-2.058;2023-02-21T09:02:49;7.90;81.20
76613;DHT22;65507;48.454;-2.058;2023-02-21T09:05:19;8.00;81.20
76613;DHT22;65507;48.454;-2.058;2023-02-21T09:07:48;8.00;81.10
76613;DHT22;65507;48.454;-2.058;2023-02-21T09:10:14;8.10;81.10
76613;DHT22;65507;48.454;-2.058;2023-02-21T09:12:39;8.10;81.10
76613;DHT22;65507;48.454;-2.058;2023-02-21T09:15:05;8.10;81.20
76613;DHT22;65507;48.454;-2.058;2023-02-21T09:17:31;8.10;81.20
76613;DHT22;65507;48.454;-2.058;2023-02-21T09:20:04;8.20;81.20
76613;DHT22;65507;48.454;-2.058;2023-02-21T09:22:31;8.30;81.00
76613;DHT22;65507;48.454;-2.058;2023-02-21T09:24:57;8.40;80.80
76613;DHT22;65507;48.454;-2.058;2023-02-21T09:27:23;8.50;80.50
76613;DHT22;65507;48.454;-2.058;2023-02-21T09:30:19;8.60;80.40
76613;DHT22;65507;48.454;-2.058;2023-02-21T09:32:48;8.70;80.20
76613;DHT22;65507;48.454;-2.058;2023-02-21T09:35:13;8.80;80.10
76613;DHT22;65507;48.454;-2.058;2023-02-21T09:37:39;8.80;80.10
76613;DHT22;65507;48.454;-2.058;2023-02-21T09:40:48;8.90;80.10
76613;DHT22;65507;48.454;-2.058;2023-02-21T09:42:55;8.90;80.10
76613;DHT22;65507;48.454;-2.058;2023-02-21T09:45:27;9.00;80.00
76613;DHT22;65507;48.454;-2.058;2023-02-21T09:47:54;9.10;79.90
76613;DHT22;65507;48.454;-2.058;2023-02-21T09:50:24;9.20;79.90
76613;DHT22;65507;48.454;-2.058;2023-02-21T09:52:52;9.30;79.70
76613;DHT22;65507;48.454;-2.058;2023-02-21T09:57:48;9.50;79.40
76613;DHT22;65507;48.454;-2.058;2023-02-21T10:00:15;9.60;79.50
76613;DHT22;65507;48.454;-2.058;2023-02-21T10:02:53;9.50;79.70
76613;DHT22;65507;48.454;-2.058;2023-02-21T10:05:41;9.50;79.70
76613;DHT22;65507;48.454;-2.058;2023-02-21T10:08:13;9.60;79.80
76613;DHT22;65507;48.454;-2.058;2023-02-21T10:10:48;9.60;79.80
76613;DHT22;65507;48.454;-2.058;2023-02-21T10:21:21;9.60;80.00
76613;DHT22;65507;48.454;-2.058;2023-02-21T10:23:49;9.50;80.10
76613;DHT22;65507;48.454;-2.058;2023-02-21T10:26:17;9.50;80.40
76613;DHT22;65507;48.454;-2.058;2023-02-21T10:28:44;9.60;80.20
76613;DHT22;65507;48.454;-2.058;2023-02-21T10:31:11;9.70;80.20
76613;DHT22;65507;48.454;-2.058;2023-02-21T10:33:38;9.70;80.10
76613;DHT22;65507;48.454;-2.058;2023-02-21T10:36:16;9.80;79.90
76613;DHT22;65507;48.454;-2.058;2023-02-21T10:38:44;9.90;79.70
76613;DHT22;65507;48.454;-2.058;2023-02-21T10:41:11;10.10;79.50
76613;DHT22;65507;48.454;-2.058;2023-02-21T10:43:43;10.10;79.30
76613;DHT22;65507;48.454;-2.058;2023-02-21T10:48:39;10.30;79.30
76613;DHT22;65507;48.454;-2.058;2023-02-21T10:53:32;10.50;79.00
76613;DHT22;65507;48.454;-2.058;2023-02-21T10:59:01;10.70;78.90
76613;DHT22;65507;48.454;-2.058;2023-02-21T11:03:51;10.70;78.70
76613;DHT22;65507;48.454;-2.058;2023-02-21T11:06:25;10.70;78.80
76613;DHT22;65507;48.454;-2.058;2023-02-21T11:08:52;10.70;79.00
76613;DHT22;65507;48.454;-2.058;2023-02-21T11:11:31;10.70;79.00
76613;DHT22;65507;48.454;-2.058;2023-02-21T11:16:41;11.00;78.80
76613;DHT22;65507;48.454;-2.058;2023-02-21T11:19:07;11.60;78.80
76613;DHT22;65507;48.454;-2.058;2023-02-21T11:21:32;11.20;78.30
76613;DHT22;65507;48.454;-2.058;2023-02-21T11:23:59;11.30;78.10
76613;DHT22;65507;48.454;-2.058;2023-02-21T11:29:21;11.50;78.10
76613;DHT22;65507;48.454;-2.058;2023-02-21T11:31:50;11.50;78.10
76613;DHT22;65507;48.454;-2.058;2023-02-21T11:34:16;11.50;78.30
76613;DHT22;65507;48.454;-2.058;2023-02-21T11:36:44;11.50;78.20
76613;DHT22;65507;48.454;-2.058;2023-02-21T11:39:18;12.30;78.60
76613;DHT22;65507;48.454;-2.058;2023-02-21T11:41:48;11.70;78.20
76613;DHT22;65507;48.454;-2.058;2023-02-21T11:44:35;11.70;78.10
76613;DHT22;65507;48.454;-2.058;2023-02-21T11:49:36;11.90;78.10
76613;DHT22;65507;48.454;-2.058;2023-02-21T11:52:19;12.00;78.00
76613;DHT22;65507;48.454;-2.058;2023-02-21T11:54:46;12.00;78.00
76613;DHT22;65507;48.454;-2.058;2023-02-21T11:57:26;12.00;78.20
76613;DHT22;65507;48.454;-2.058;2023-02-21T12:00:00;12.10;77.90
76613;DHT22;65507;48.454;-2.058;2023-02-21T12:03:13;12.10;78.00
76613;DHT22;65507;48.454;-2.058;2023-02-21T12:07:46;12.20;78.00
76613;DHT22;65507;48.454;-2.058;2023-02-21T12:15:42;12.40;77.80
76613;DHT22;65507;48.454;-2.058;2023-02-21T12:21:17;12.40;77.70
76613;DHT22;65507;48.454;-2.058;2023-02-21T12:23:52;12.50;77.70
76613;DHT22;65507;48.454;-2.058;2023-02-21T12:31:36;12.80;77.60
76613;DHT22;65507;48.454;-2.058;2023-02-21T12:42:17;13.30;76.50
76613;DHT22;65507;48.454;-2.058;2023-02-21T12:44:52;13.50;76.40
76613;DHT22;65507;48.454;-2.058;2023-02-21T12:47:20;13.50;76.30
76613;DHT22;65507;48.454;-2.058;2023-02-21T12:49:52;13.70;76.30
76613;DHT22;65507;48.454;-2.058;2023-02-21T12:52:26;13.80;76.10
76613;DHT22;65507;48.454;-2.058;2023-02-21T12:57:30;14.00;76.10
76613;DHT22;65507;48.454;-2.058;2023-02-21T13:05:56;14.10;76.10
76613;DHT22;65507;48.454;-2.058;2023-02-21T13:08:46;14.20;76.20
76613;DHT22;65507;48.454;-2.058;2023-02-21T13:11:13;14.30;76.10
76613;DHT22;65507;48.454;-2.058;2023-02-21T13:13:41;14.30;76.10
76613;DHT22;65507;48.454;-2.058;2023-02-21T13:16:07;14.40;76.10
76613;DHT22;65507;48.454;-2.058;2023-02-21T13:18:48;14.40;76.10
76613;DHT22;65507;48.454;-2.058;2023-02-21T13:23:51;14.40;76.20
76613;DHT22;65507;48.454;-2.058;2023-02-21T13:29:29;14.40;76.40
76613;DHT22;65507;48.454;-2.058;2023-02-21T13:32:07;14.40;76.40
76613;DHT22;65507;48.454;-2.058;2023-02-21T13:34:37;14.50;76.50
76613;DHT22;65507;48.454;-2.058;2023-02-21T13:37:05;14.50;77.50
76613;DHT22;65507;48.454;-2.058;2023-02-21T13:39:31;14.50;76.70
76613;DHT22;65507;48.454;-2.058;2023-02-21T13:42:08;14.50;76.80
76613;DHT22;65507;48.454;-2.058;2023-02-21T13:44:38;14.50;76.80
76613;DHT22;65507;48.454;-2.058;2023-02-21T13:49:39;14.50;76.80
76613;DHT22;65507;48.454;-2.058;2023-02-21T13:57:32;14.40;77.20
76613;DHT22;65507;48.454;-2.058;2023-02-21T13:59:57;14.30;77.30
76613;DHT22;65507;48.454;-2.058;2023-02-21T14:02:27;14.20;77.50
76613;DHT22;65507;48.454;-2.058;2023-02-21T14:10:12;14.00;77.90
76613;DHT22;65507;48.454;-2.058;2023-02-21T14:12:42;14.00;78.10
76613;DHT22;65507;48.454;-2.058;2023-02-21T14:15:07;14.10;78.10
76613;DHT22;65507;48.454;-2.058;2023-02-21T14:17:33;14.10;78.00
76613;DHT22;65507;48.454;-2.058;2023-02-21T14:20:00;14.80;78.20
76613;DHT22;65507;48.454;-2.058;2023-02-21T14:22:28;14.20;77.60
76613;DHT22;65507;48.454;-2.058;2023-02-21T14:27:52;14.30;77.30
76613;DHT22;65507;48.454;-2.058;2023-02-21T14:30:36;14.30;77.50
76613;DHT22;65507;48.454;-2.058;2023-02-21T14:33:20;14.20;77.50
76613;DHT22;65507;48.454;-2.058;2023-02-21T14:35:53;14.10;77.60
76613;DHT22;65507;48.454;-2.058;2023-02-21T14:38:24;14.10;77.70
76613;DHT22;65507;48.454;-2.058;2023-02-21T14:41:02;14.00;77.90
76613;DHT22;65507;48.454;-2.058;2023-02-21T15:02:00;13.70;78.30
76613;DHT22;65507;48.454;-2.058;2023-02-21T15:09:24;13.50;78.50
76613;DHT22;65507;48.454;-2.058;2023-02-21T15:11:50;13.40;78.60
76613;DHT22;65507;48.454;-2.058;2023-02-21T15:14:19;13.40;79.10
76613;DHT22;65507;48.454;-2.058;2023-02-21T15:16:53;13.40;78.70
76613;DHT22;65507;48.454;-2.058;2023-02-21T15:24:35;13.30;78.60
76613;DHT22;65507;48.454;-2.058;2023-02-21T15:27:10;13.30;78.60
76613;DHT22;65507;48.454;-2.058;2023-02-21T15:29:36;13.20;78.70
76613;DHT22;65507;48.454;-2.058;2023-02-21T15:32:02;13.20;79.10
76613;DHT22;65507;48.454;-2.058;2023-02-21T15:34:49;13.10;78.90
76613;DHT22;65507;48.454;-2.058;2023-02-21T15:37:32;13.10;78.80
76613;DHT22;65507;48.454;-2.058;2023-02-21T15:40:03;13.10;78.70
76613;DHT22;65507;48.454;-2.058;2023-02-21T15:42:36;13.10;78.70
76613;DHT22;65507;48.454;-2.058;2023-02-21T15:45:08;13.10;78.60
76613;DHT22;65507;48.454;-2.058;2023-02-21T15:47:35;13.10;78.60
76613;DHT22;65507;48.454;-2.058;2023-02-21T15:52:33;13.10;78.60
76613;DHT22;65507;48.454;-2.058;2023-02-21T15:57:37;13.10;78.60
76613;DHT22;65507;48.454;-2.058;2023-02-21T16:05:45;13.00;78.60
76613;DHT22;65507;48.454;-2.058;2023-02-21T16:08:12;13.00;78.70
76613;DHT22;65507;48.454;-2.058;2023-02-21T16:10:38;13.00;78.60
76613;DHT22;65507;48.454;-2.058;2023-02-21T16:13:05;13.10;78.60
76613;DHT22;65507;48.454;-2.058;2023-02-21T16:15:32;13.10;78.40
76613;DHT22;65507;48.454;-2.058;2023-02-21T16:17:59;13.10;79.30
76613;DHT22;65507;48.454;-2.058;2023-02-21T16:20:32;13.10;78.30
76613;DHT22;65507;48.454;-2.058;2023-02-21T16:23:20;13.10;78.30
76613;DHT22;65507;48.454;-2.058;2023-02-21T16:26:18;13.20;78.30
76613;DHT22;65507;48.454;-2.058;2023-02-21T16:28:45;13.20;78.30
76613;DHT22;65507;48.454;-2.058;2023-02-21T16:31:14;13.20;78.30
76613;DHT22;65507;48.454;-2.058;2023-02-21T16:33:40;13.20;78.30
76613;DHT22;65507;48.454;-2.058;2023-02-21T16:36:07;13.20;78.30
76613;DHT22;65507;48.454;-2.058;2023-02-21T16:38:33;13.20;78.30
76613;DHT22;65507;48.454;-2.058;2023-02-21T16:40:59;13.20;78.40
76613;DHT22;65507;48.454;-2.058;2023-02-21T16:43:25;13.10;78.30
76613;DHT22;65507;48.454;-2.058;2023-02-21T16:45:52;13.10;78.40
76613;DHT22;65507;48.454;-2.058;2023-02-21T16:48:23;13.10;78.50
76613;DHT22;65507;48.454;-2.058;2023-02-21T16:50:51;13.10;78.60
76613;DHT22;65507;48.454;-2.058;2023-02-21T16:53:17;12.90;78.80
76613;DHT22;65507;48.454;-2.058;2023-02-21T16:55:43;12.90;79.00
76613;DHT22;65507;48.454;-2.058;2023-02-21T17:00:40;12.80;79.10
76613;DHT22;65507;48.454;-2.058;2023-02-21T17:03:06;12.70;79.30
76613;DHT22;65507;48.454;-2.058;2023-02-21T17:05:31;12.70;79.30
76613;DHT22;65507;48.454;-2.058;2023-02-21T17:08:00;12.60;79.30
76613;DHT22;65507;48.454;-2.058;2023-02-21T17:10:25;12.50;79.30
76613;DHT22;65507;48.454;-2.058;2023-02-21T17:12:51;12.50;79.50
76613;DHT22;65507;48.454;-2.058;2023-02-21T17:15:17;12.40;79.50
76613;DHT22;65507;48.454;-2.058;2023-02-21T17:17:42;12.40;79.60
76613;DHT22;65507;48.454;-2.058;2023-02-21T17:20:09;12.40;79.70
76613;DHT22;65507;48.454;-2.058;2023-02-21T17:22:38;12.30;79.70
76613;DHT22;65507;48.454;-2.058;2023-02-21T17:25:04;12.20;79.60
76613;DHT22;65507;48.454;-2.058;2023-02-21T17:27:30;12.20;79.60
76613;DHT22;65507;48.454;-2.058;2023-02-21T17:29:56;12.10;79.60
76613;DHT22;65507;48.454;-2.058;2023-02-21T17:32:21;12.10;79.60
76613;DHT22;65507;48.454;-2.058;2023-02-21T17:34:47;12.10;79.70
76613;DHT22;65507;48.454;-2.058;2023-02-21T17:37:12;12.00;79.80
76613;DHT22;65507;48.454;-2.058;2023-02-21T17:39:38;12.00;79.70
76613;DHT22;65507;48.454;-2.058;2023-02-21T17:42:04;11.90;79.80
76613;DHT22;65507;48.454;-2.058;2023-02-21T17:44:29;11.90;79.90
76613;DHT22;65507;48.454;-2.058;2023-02-21T17:46:55;11.80;79.90
76613;DHT22;65507;48.454;-2.058;2023-02-21T17:49:22;11.80;79.90
76613;DHT22;65507;48.454;-2.058;2023-02-21T17:51:49;11.70;79.90
76613;DHT22;65507;48.454;-2.058;2023-02-21T17:54:16;11.70;80.00
76613;DHT22;65507;48.454;-2.058;2023-02-21T17:56:41;11.60;79.90
76613;DHT22;65507;48.454;-2.058;2023-02-21T17:59:07;11.60;80.00
76613;DHT22;65507;48.454;-2.058;2023-02-21T18:01:33;11.50;80.00
76613;DHT22;65507;48.454;-2.058;2023-02-21T18:03:58;11.50;80.10
76613;DHT22;65507;48.454;-2.058;2023-02-21T18:06:27;11.40;80.10